• Join FlightAware (Why Join?)
  • Login
  • US Flag 
02:37AM EST


 

Airport Tracker/Info


-or-


 

Live Flight TrackerFlight Track Log ✈ VNR160 ✈ 21-Apr-2013 ✈ KBED - KCGF

Flight Track Log - Related Links

Times and Time Zones

All times are in EDT time to prevent confusion due to time zone crossing. See the VNR160 flight status page for this flight to view local times or setup timezone preferences in your user account.

Time Position Orientation Groundspeed Altitude Reporting Facility
EDT Latitude Longitude Course Direction KTS MPH feet Rate Location/Type
02:02PM 42.4667 -71.3167 299° West 130 150 1,200  Level KA90
02:03PM 42.5000 -71.4000 299° West 178 205 4,000 1,800 Climbing KA90
02:05PM 42.6242 -71.3369 20° North 213 245 8,100 1,920 Climbing Boston Center
02:06PM 42.6783 -71.3161 16° North 202 232 10,500 2,040 Climbing Boston Center
02:07PM 42.7344 -71.2953 15° North 202 232 12,200 1,800 Climbing Boston Center
02:08PM 42.7803 -71.3114 346° North 198 228 14,100 2,040 Climbing Boston Center
02:09PM 42.7914 -71.3792 283° West 164 189 16,300 2,100 Climbing Boston Center
02:10PM 42.8006 -71.4525 280° West 192 221 18,300 1,380 Climbing Boston Center
02:11PM 42.8114 -71.5175 283° West 200 230 19,100 1,200 Climbing Boston Center
02:12PM 42.8142 -71.5994 273° West 200 230 20,800 1,800 Climbing Boston Center
02:13PM 42.8231 -71.6644 281° West 200 230 22,700 1,740 Climbing Boston Center
02:14PM 42.8275 -71.7381 275° West 200 230 24,300 1,500 Climbing Boston Center
02:15PM 42.8364 -71.8114 279° West 200 230 25,700 1,260 Climbing Boston Center
02:16PM 42.8431 -71.8878 277° West 200 230 26,900 1,140 Climbing Boston Center
02:17PM 42.8517 -71.9700 278° West 200 230 28,000 540 Climbing Boston Center
02:18PM 42.8583 -72.0578 276° West 217 250 28,000  Level Boston Center
02:19PM 42.8669 -72.1597 277° West 250 288 28,000  Level Boston Center
02:20PM 42.8817 -72.2786 280° West 278 320 28,000  Level Boston Center
02:21PM 42.8944 -72.3833 279° West 285 328 28,000  Level Boston Center
02:22PM 42.9047 -72.4911 277° West 290 334 28,000  Level Boston Center
02:23PM 42.9131 -72.6017 276° West 296 341 28,000  Level Boston Center
02:24PM 42.9147 -72.7094 271° West 290 334 28,000  Level Boston Center
02:25PM 42.9228 -72.8172 276° West 290 334 28,000  Level Boston Center
02:26PM 42.9328 -72.9278 277° West 290 334 28,000  Level Boston Center
02:27PM 42.9428 -73.0300 278° West 296 341 28,000  Level Boston Center
02:28PM 42.9525 -73.1378 277° West 296 341 28,000  Level Boston Center
02:29PM 42.9603 -73.2486 276° West 291 335 28,000  Level Boston Center
02:30PM 42.9656 -73.3678 274° West 291 335 28,000  Level Boston Center
02:31PM 42.9772 -73.4758 278° West 291 335 28,000  Level Boston Center
02:32PM 42.9844 -73.5867 275° West 291 335 28,000  Level Boston Center
02:33PM 42.9936 -73.6947 277° West 291 335 28,000  Level Boston Center
02:34PM 43.0008 -73.8056 275° West 291 335 28,000  Level Boston Center
02:35PM 43.0097 -73.9167 276° West 291 335 28,000  Level Boston Center
02:36PM 43.0186 -74.0275 276° West 291 335 28,000  Level Boston Center
02:37PM 43.0275 -74.1386 276° West 291 335 28,000  Level Boston Center
02:38PM 43.0364 -74.2494 276° West 291 335 28,000  Level Boston Center
02:39PM 43.0428 -74.3633 274° West 291 335 28,000  Level Boston Center
02:40PM 43.0533 -74.4744 277° West 291 335 28,000  Level Boston Center
02:41PM 43.0597 -74.5856 275° West 291 335 28,000  Level Boston Center
02:42PM 43.0678 -74.6967 276° West 296 341 28,000  Level Boston Center
02:43PM 43.0725 -74.7850 274° West 296 341 28,000  Level Boston Center
02:44PM 43.0819 -74.9219 275° West 296 341 28,000  Level Boston Center
02:45PM 43.0878 -75.0358 274° West 301 346 28,000  Level Boston Center
02:46PM 43.0978 -75.1386 278° West 301 346 28,000  Level Boston Center
02:47PM 43.1033 -75.2556 274° West 306 352 28,000  Level Boston Center
02:48PM 43.1131 -75.3725 277° West 311 358 28,000  Level Boston Center
02:49PM 43.1203 -75.4867 275° West 311 358 28,000  Level Boston Center
02:50PM 43.1275 -75.6039 275° West 311 358 28,000  Level Boston Center
02:51PM 43.1328 -75.7208 274° West 311 358 28,000  Level Boston Center
02:52PM 43.1397 -75.8378 275° West 311 358 28,000  Level Boston Center
02:53PM 43.1467 -75.9550 275° West 311 358 28,000  Level Boston Center
02:54PM 43.1556 -76.0692 276° West 311 358 28,000  Level Boston Center
02:56PM 43.1464 -76.2547 266° West 308 354 28,000  Level Cleveland Center
02:57PM 43.1108 -76.3653 246° West 308 354 28,000  Level Cleveland Center
02:58PM 43.0769 -76.4728 247° West 308 354 28,000  Level Cleveland Center
02:59PM 43.0411 -76.5803 246° West 313 360 28,000  Level Cleveland Center
03:00PM 43.0075 -76.6875 247° West 313 360 28,000  Level Cleveland Center
03:01PM 42.9714 -76.7978 246° West 319 367 28,000  Level Cleveland Center
03:02PM 42.9372 -76.9047 246° West 319 367 28,000  Level Cleveland Center
03:03PM 42.9011 -77.0117 245° Southwest 319 367 28,000  Level Cleveland Center
03:04PM 42.8689 -77.1156 247° West 319 367 28,000  Level Cleveland Center
03:05PM 42.8325 -77.2253 246° West 319 367 28,000  Level Cleveland Center
03:06PM 42.7981 -77.3319 246° West 319 367 28,000  Level Cleveland Center
03:07PM 42.7633 -77.4383 246° West 319 367 28,000  Level Cleveland Center
03:08PM 42.7286 -77.5447 246° West 319 367 28,000  Level Cleveland Center
03:09PM 42.6919 -77.6539 245° Southwest 319 367 28,000  Level Cleveland Center
03:10PM 42.6572 -77.7628 247° West 319 367 28,000  Level Cleveland Center
03:11PM 42.6161 -77.8803 245° Southwest 319 367 28,000  Level Cleveland Center
03:12PM 42.5789 -77.9861 244° Southwest 319 367 28,000  Level Cleveland Center
03:13PM 42.5439 -78.0947 246° West 319 367 28,000  Level Cleveland Center
03:14PM 42.5067 -78.2061 246° West 319 367 28,000  Level Cleveland Center
03:15PM 42.4711 -78.3114 245° Southwest 319 367 28,000  Level Cleveland Center
03:16PM 42.4336 -78.4197 245° Southwest 319 367 28,000  Level Cleveland Center
03:17PM 42.3961 -78.5281 245° Southwest 319 367 28,000  Level Cleveland Center
03:18PM 42.3583 -78.6358 245° Southwest 319 367 28,000  Level Cleveland Center
03:19PM 42.3206 -78.7467 245° Southwest 319 367 28,000  Level Cleveland Center
03:20PM 42.2847 -78.8544 246° West 319 367 28,000  Level Cleveland Center
03:21PM 42.2486 -78.9506 243° Southwest 319 367 28,000  Level Cleveland Center
03:22PM 42.2106 -79.0608 245° Southwest 319 367 28,000  Level Cleveland Center
03:23PM 42.1703 -79.1797 245° Southwest 319 367 28,000  Level Cleveland Center
03:24PM 42.1342 -79.2925 247° West 319 367 28,000 -600 Level Cleveland Center
03:25PM 42.0978 -79.4050 246° West 324 373 26,800 -1,200 Descending Cleveland Center
03:26PM 42.0614 -79.5231 247° West 324 373 25,600 -1,380 Descending Cleveland Center
03:27PM 42.0247 -79.6328 246° West 330 380 24,100 -1,500 Descending Cleveland Center
03:28PM 41.9922 -79.7394 248° West 330 380 22,600 -1,500 Descending Cleveland Center
03:29PM 41.9556 -79.8489 246° West 330 380 21,200 -1,320 Descending Cleveland Center
03:30PM 41.9228 -79.9442 245° Southwest 319 367 20,000 -600 Descending Cleveland Center
03:31PM 41.8878 -80.0533 247° West 319 367 20,000  Level Cleveland Center
03:32PM 41.8528 -80.1622 247° West 319 367 20,000 -60 Level Cleveland Center
03:33PM 41.8136 -80.2794 246° West 319 367 19,900 -1,140 Descending Cleveland Center
03:34PM 41.7783 -80.3856 246° West 319 367 17,800 -1,800 Descending Cleveland Center
03:35PM 41.7431 -80.4858 245° Southwest 309 356 16,400 -1,740 Descending Cleveland Center
03:36PM 41.7097 -80.5886 247° West 304 350 14,400 -2,100 Descending Cleveland Center
03:37PM 41.6786 -80.6889 247° West 294 338 12,300 -2,100 Descending Cleveland Center
03:38PM 41.6597 -80.7389 243° Southwest 293 337 11,200 -2,040 Descending Cleveland Center
03:38PM 41.6450 -80.7861 247° West 294 338 10,300 -1,980 Descending Cleveland Center
03:39PM 41.6031 -80.8997 244° Southwest 292 336 8,000 -2,040 Descending Cleveland Center
03:40PM 41.5925 -80.9803 260° West 289 333 6,300 -1,140 Descending Cleveland Center
03:41PM 41.5900 -81.0800 268° West 273 314 6,000 -360 Descending Cleveland Center
03:42PM 41.5853 -81.1800 266° West 273 314 5,600 -660 Descending Cleveland Center
03:43PM 41.5806 -81.2578 265° West 260 299 4,700 -960 Descending Cleveland Center
03:44PM 41.5636 -81.3353 254° West 229 264 3,700 -1,020 Descending Cleveland Center
03:45PM 41.5567 -81.4100 263° West 214 246 2,700 -600 Descending Cleveland Center
03:46PM 41.5272 -81.4653 235° Southwest 192 221 2,500 -240 Descending Cleveland Center
03:46PM 41.5208 -81.4817 242° Southwest 155 178 2,400 -600 Descending Cleveland Center
03:47PM 41.5311 -81.5094 296° West 146 168 1,900 -840 Descending Cleveland Center
03:47PM 41.5475 -81.5153 345° North 119 137 1,500 -1,140 Descending Cleveland Center
03:49PM 41.5500 -81.4833 37° Northeast  Level FlightAware Approximate
03:56PM 41.5651 -81.4864 37° Northeast  Level Estimated